KFGN

Flag Island Airport

Flag Island, Minnesota, USA
METAR KFGN 241335Z AUTO 15004KT 10SM CLR 18/16 A2993 RMK AO2
Observed Flight Rules
May-24 @ 13:35 UTC (23 minutes ago) Visual Flight Rules
Wind Visibility Clouds
150° at 4 knots 10 miles
  • Clear skies
Temperatures Readings
Current 18°C / 64°F
Dewpoint 16°C / 61°F
Humidity 88%
Altimeter 29.93" Hg
Pressure 1014 hPa
Elevation 328
METAR KFGN 241335Z AUTO 15004KT 10SM CLR 18/16 A2993 RMK AO2
Observed Flight Rules
May-24 @ 13:35 UTC
(23 minutes ago)
VFR
Wind Visibility
150° at 4 knots 10 miles
Clouds
  • Clear skies
Temperature Dewpoint
18°C / 64°F 16°C / 61°F
Humidity Altimeter Pressure
88% 29.93" Hg 1014 hPa